Time;durP1;ratioP1;P1;durP2;ratioP2;P2;SDS_P1;SDS_P2;PMS_P1;PMS_P2;Temp;Humidity;BMP_temperature;BMP_pressure;BME280_temperature;BME280_humidity;BME280_pressure;Samples;Min_cycle;Max_cycle;Signal;HPM_P1;HPM_P2
2023/09/02 00:00:13;;;;;;;14.30;11.88;;;;;;;;;;6318796;28;20148;-68
2023/09/02 00:03:17;;;;;;;13.18;9.88;;;;;;;;;;6310490;28;20044;-68
2023/09/02 00:06:19;;;;;;;14.02;10.75;;;;;;;;;;6305041;28;20044;-69
2023/09/02 00:09:21;;;;;;;12.88;9.88;;;;;;;;;;6312956;28;20523;-68
2023/09/02 00:12:23;;;;;;;13.90;12.32;;;;;;;;;;6312607;28;20052;-68
2023/09/02 00:15:25;;;;;;;12.75;10.77;;;;;;;;;;6311657;28;20040;-69
2023/09/02 00:18:27;;;;;;;14.13;11.10;;;;;;;;;;6312179;28;20060;-69
2023/09/02 00:21:32;;;;;;;17.25;15.20;;;;;;;;;;6312542;28;20139;-69
2023/09/02 00:24:34;;;;;;;14.07;10.20;;;;;;;;;;6312186;28;20044;-69
2023/09/02 00:27:36;;;;;;;14.25;10.60;;;;;;;;;;6311141;28;20054;-68
2023/09/02 00:30:38;;;;;;;15.55;11.18;;;;;;;;;;6321235;28;20089;-69
2023/09/02 00:33:40;;;;;;;12.23;9.90;;;;;;;;;;6317020;28;20052;-69
2023/09/02 00:36:42;;;;;;;14.38;9.88;;;;;;;;;;6312330;28;20040;-69
2023/09/02 00:39:44;;;;;;;13.35;11.93;;;;;;;;;;6319347;28;20059;-69
2023/09/02 00:42:47;;;;;;;13.38;10.88;;;;;;;;;;6312764;28;20052;-69
2023/09/02 00:45:49;;;;;;;12.07;8.90;;;;;;;;;;6314848;28;20510;-69
2023/09/02 00:48:52;;;;;;;12.95;11.43;;;;;;;;;;6310645;28;20048;-69
2023/09/02 00:51:54;;;;;;;13.70;10.52;;;;;;;;;;6313243;28;20129;-69
2023/09/02 00:54:56;;;;;;;13.50;9.88;;;;;;;;;;6317285;28;20051;-69
2023/09/02 00:57:59;;;;;;;13.20;11.80;;;;;;;;;;6312287;28;20044;-70
2023/09/02 01:01:03;;;;;;;12.10;8.38;;;;;;;;;;6310842;28;20044;-70
2023/09/02 01:04:06;;;;;;;13.45;8.57;;;;;;;;;;6309890;28;20036;-70
2023/09/02 01:07:08;;;;;;;14.10;10.32;;;;;;;;;;6311261;28;20478;-69
2023/09/02 01:10:10;;;;;;;16.40;13.38;;;;;;;;;;6313462;28;20058;-69
2023/09/02 01:13:13;;;;;;;14.88;12.98;;;;;;;;;;6311791;28;20050;-69
2023/09/02 01:16:15;;;;;;;15.60;10.38;;;;;;;;;;6310184;28;20177;-68
2023/09/02 01:19:18;;;;;;;13.90;11.52;;;;;;;;;;6312734;28;20047;-68
2023/09/02 01:22:48;;;;;;;15.93;14.32;;;;;;;;;;6292759;28;20369;-69
2023/09/02 01:25:59;;;;;;;15.73;14.20;;;;;;;;;;6296676;28;20055;-68
2023/09/02 01:29:05;;;;;;;15.40;13.27;;;;;;;;;;6315260;28;20059;-69
2023/09/02 01:32:08;;;;;;;14.45;12.95;;;;;;;;;;6292817;28;20051;-68
2023/09/02 01:35:15;;;;;;;15.02;9.98;;;;;;;;;;6309885;28;20054;-69
2023/09/02 01:38:21;;;;;;;17.05;15.27;;;;;;;;;;6309237;28;20047;-69
2023/09/02 01:41:23;;;;;;;14.15;11.98;;;;;;;;;;6292696;28;20059;-70
2023/09/02 01:44:27;;;;;;;16.15;13.07;;;;;;;;;;6328992;28;20074;-69
2023/09/02 01:47:29;;;;;;;15.55;13.15;;;;;;;;;;6294185;28;20586;-69
2023/09/02 01:50:34;;;;;;;14.77;13.20;;;;;;;;;;6318448;28;20055;-69
2023/09/02 01:53:36;;;;;;;12.68;11.32;;;;;;;;;;6314390;28;20052;-69
2023/09/02 01:56:38;;;;;;;14.18;11.18;;;;;;;;;;6312333;28;20628;-68
2023/09/02 01:59:41;;;;;;;14.00;12.35;;;;;;;;;;6313195;28;20117;-69
2023/09/02 02:02:43;;;;;;;13.82;11.75;;;;;;;;;;6315384;28;20055;-68
2023/09/02 02:05:51;;;;;;;14.68;11.25;;;;;;;;;;6310646;28;20467;-69
2023/09/02 02:09:03;;;;;;;15.50;13.75;;;;;;;;;;6317608;28;20055;-69
2023/09/02 02:12:06;;;;;;;17.13;13.95;;;;;;;;;;6316927;28;20876;-69
2023/09/02 02:15:12;;;;;;;14.23;12.43;;;;;;;;;;6320728;28;20891;-68
2023/09/02 02:18:14;;;;;;;15.15;13.55;;;;;;;;;;6313296;28;20040;-69
2023/09/02 02:21:16;;;;;;;20.42;13.98;;;;;;;;;;6319139;28;20048;-69
2023/09/02 02:24:18;;;;;;;13.13;10.05;;;;;;;;;;6296621;28;20136;-69
2023/09/02 02:27:20;;;;;;;14.68;9.88;;;;;;;;;;6315075;28;20132;-69
2023/09/02 02:30:22;;;;;;;16.23;9.70;;;;;;;;;;6309151;28;20044;-69
2023/09/02 02:33:25;;;;;;;15.32;13.73;;;;;;;;;;6313619;28;20048;-69
2023/09/02 02:36:27;;;;;;;16.00;10.45;;;;;;;;;;6314508;28;20102;-69
2023/09/02 02:39:29;;;;;;;14.57;11.48;;;;;;;;;;6321524;28;20845;-68
2023/09/02 02:42:32;;;;;;;15.70;13.77;;;;;;;;;;6322547;28;20055;-69
2023/09/02 02:45:35;;;;;;;16.00;10.32;;;;;;;;;;6329855;28;20517;-69
2023/09/02 02:48:37;;;;;;;15.88;11.40;;;;;;;;;;6303283;28;20126;-69
2023/09/02 02:51:39;;;;;;;18.45;16.45;;;;;;;;;;6322612;28;20100;-69
2023/09/02 02:54:41;;;;;;;17.80;14.35;;;;;;;;;;6319724;28;20062;-68
2023/09/02 02:57:47;;;;;;;15.77;13.18;;;;;;;;;;6313798;28;20044;-68
2023/09/02 03:00:50;;;;;;;17.48;14.27;;;;;;;;;;6314166;28;20182;-68
2023/09/02 03:03:53;;;;;;;16.42;11.80;;;;;;;;;;6315299;28;20121;-68
2023/09/02 03:06:56;;;;;;;17.00;13.82;;;;;;;;;;6311594;28;20040;-67
2023/09/02 03:09:58;;;;;;;14.68;10.43;;;;;;;;;;6323310;28;20435;-67
2023/09/02 03:13:02;;;;;;;18.33;14.27;;;;;;;;;;6289735;28;20088;-68
2023/09/02 03:16:05;;;;;;;18.42;15.38;;;;;;;;;;6312404;28;20187;-68
2023/09/02 03:19:07;;;;;;;21.67;14.35;;;;;;;;;;6319869;28;20086;-68
2023/09/02 03:22:09;;;;;;;19.23;17.20;;;;;;;;;;6312330;28;20044;-68
2023/09/02 03:25:16;;;;;;;19.10;14.75;;;;;;;;;;6309801;28;20055;-68
2023/09/02 03:28:18;;;;;;;17.35;14.48;;;;;;;;;;6311839;28;20040;-68
2023/09/02 03:31:20;;;;;;;19.10;16.00;;;;;;;;;;6312575;28;20040;-68
2023/09/02 03:34:22;;;;;;;16.23;14.25;;;;;;;;;;6313665;28;20036;-67
2023/09/02 03:37:24;;;;;;;17.42;15.63;;;;;;;;;;6315496;28;20079;-68
2023/09/02 03:40:29;;;;;;;19.00;16.63;;;;;;;;;;6318079;28;20128;-67
2023/09/02 03:43:31;;;;;;;20.33;14.32;;;;;;;;;;6312006;28;20074;-67
2023/09/02 03:46:33;;;;;;;19.38;16.42;;;;;;;;;;6314532;28;20048;-68
2023/09/02 03:49:36;;;;;;;18.45;12.38;;;;;;;;;;6317856;28;20450;-68
2023/09/02 03:52:38;;;;;;;18.73;15.30;;;;;;;;;;6311148;28;20150;-68
2023/09/02 03:55:41;;;;;;;18.73;15.50;;;;;;;;;;6323512;28;20044;-68
2023/09/02 03:58:43;;;;;;;17.48;12.70;;;;;;;;;;6316544;28;20805;-68
2023/09/02 04:01:46;;;;;;;18.15;14.75;;;;;;;;;;6311409;28;20093;-68
2023/09/02 04:04:49;;;;;;;20.15;16.02;;;;;;;;;;6311456;28;20048;-67
2023/09/02 04:07:51;;;;;;;17.45;15.57;;;;;;;;;;6314553;28;20116;-68
2023/09/02 04:10:56;;;;;;;18.42;14.25;;;;;;;;;;6308719;28;20040;-68
2023/09/02 04:13:58;;;;;;;18.48;16.25;;;;;;;;;;6314631;28;20082;-68
2023/09/02 04:17:00;;;;;;;17.73;15.00;;;;;;;;;;6311399;28;20039;-68
2023/09/02 04:20:04;;;;;;;17.25;14.30;;;;;;;;;;6314683;28;20043;-68
2023/09/02 04:23:07;;;;;;;16.70;14.20;;;;;;;;;;6311215;28;20047;-68
2023/09/02 04:26:10;;;;;;;15.93;10.95;;;;;;;;;;6314006;28;20486;-68
2023/09/02 04:29:12;;;;;;;17.50;13.65;;;;;;;;;;6318111;28;20056;-68
2023/09/02 04:32:14;;;;;;;18.20;14.00;;;;;;;;;;6311079;28;20098;-68
2023/09/02 04:35:17;;;;;;;16.40;12.05;;;;;;;;;;6310600;28;20435;-68
2023/09/02 04:38:20;;;;;;;16.27;12.07;;;;;;;;;;6306134;28;20426;-68
2023/09/02 04:41:25;;;;;;;15.73;13.63;;;;;;;;;;6304493;28;20044;-68
2023/09/02 04:44:32;;;;;;;16.80;14.00;;;;;;;;;;6312246;28;20059;-69
2023/09/02 04:47:34;;;;;;;19.67;16.02;;;;;;;;;;6296153;28;20044;-69
2023/09/02 04:50:37;;;;;;;17.30;12.73;;;;;;;;;;6308850;28;20044;-68
2023/09/02 04:53:41;;;;;;;15.07;13.20;;;;;;;;;;6309221;28;20048;-69
2023/09/02 04:56:43;;;;;;;15.82;10.70;;;;;;;;;;6311228;28;20484;-68
2023/09/02 04:59:46;;;;;;;16.48;14.43;;;;;;;;;;6307780;28;20536;-68
2023/09/02 05:02:48;;;;;;;16.67;13.60;;;;;;;;;;6301831;28;20052;-68
2023/09/02 05:05:50;;;;;;;15.70;13.77;;;;;;;;;;6323559;28;20094;-68
2023/09/02 05:08:54;;;;;;;13.20;9.02;;;;;;;;;;6304748;28;20088;-68
2023/09/02 05:11:59;;;;;;;14.80;13.20;;;;;;;;;;6309464;28;20060;-69
2023/09/02 05:15:01;;;;;;;16.02;11.30;;;;;;;;;;6307820;28;20616;-69
2023/09/02 05:18:04;;;;;;;13.35;10.18;;;;;;;;;;6301580;28;20051;-69
2023/09/02 05:21:06;;;;;;;16.70;11.82;;;;;;;;;;6304821;28;20446;-69
2023/09/02 05:24:08;;;;;;;17.67;15.80;;;;;;;;;;6305108;28;20044;-69
2023/09/02 05:27:13;;;;;;;17.92;14.13;;;;;;;;;;6303763;28;20052;-69
2023/09/02 05:30:17;;;;;;;16.60;14.38;;;;;;;;;;6301146;28;20036;-69
2023/09/02 05:33:19;;;;;;;17.02;14.82;;;;;;;;;;6304444;28;20035;-70
2023/09/02 05:36:22;;;;;;;16.33;14.45;;;;;;;;;;6307967;28;20043;-67
2023/09/02 05:39:24;;;;;;;15.43;13.23;;;;;;;;;;6303177;28;20605;-70
2023/09/02 05:42:26;;;;;;;16.48;14.40;;;;;;;;;;6304468;28;20138;-70
2023/09/02 05:45:28;;;;;;;17.90;14.60;;;;;;;;;;6307063;28;20123;-69
2023/09/02 05:48:30;;;;;;;17.77;11.80;;;;;;;;;;6305538;28;20040;-68
2023/09/02 05:51:32;;;;;;;19.92;15.82;;;;;;;;;;6307275;28;20063;-68
2023/09/02 05:54:34;;;;;;;15.57;11.52;;;;;;;;;;6307286;28;20122;-65
2023/09/02 05:57:36;;;;;;;14.50;11.95;;;;;;;;;;6305951;28;20051;-66
2023/09/02 06:00:39;;;;;;;14.98;10.73;;;;;;;;;;6302577;28;20044;-69
2023/09/02 06:03:43;;;;;;;14.20;12.32;;;;;;;;;;6309521;28;20040;-68
2023/09/02 06:06:46;;;;;;;14.43;12.63;;;;;;;;;;6309046;28;20548;-69
2023/09/02 06:09:48;;;;;;;12.65;9.82;;;;;;;;;;6297749;28;20049;-67
2023/09/02 06:12:50;;;;;;;15.73;12.63;;;;;;;;;;6303749;28;20142;-67
2023/09/02 06:16:01;;;;;;;14.75;10.25;;;;;;;;;;6305010;28;20583;-69
2023/09/02 06:19:04;;;;;;;12.95;9.82;;;;;;;;;;6297769;28;20082;-67
2023/09/02 06:22:08;;;;;;;11.57;9.35;;;;;;;;;;6310276;28;20083;-68
2023/09/02 06:25:13;;;;;;;14.68;13.15;;;;;;;;;;6303050;28;20055;-69
2023/09/02 06:28:15;;;;;;;13.13;9.73;;;;;;;;;;6307009;28;20047;-68
2023/09/02 06:31:17;;;;;;;14.32;11.30;;;;;;;;;;6307678;28;20055;-68
2023/09/02 06:34:22;;;;;;;12.85;10.88;;;;;;;;;;6307811;28;20056;-69
2023/09/02 06:37:28;;;;;;;13.20;9.40;;;;;;;;;;6304664;28;20411;-69
2023/09/02 06:40:34;;;;;;;15.30;10.18;;;;;;;;;;6303612;27;20039;-68
2023/09/02 06:43:36;;;;;;;15.38;8.90;;;;;;;;;;6307183;28;20796;-70
2023/09/02 06:46:41;;;;;;;15.93;14.32;;;;;;;;;;6309002;28;20044;-70
2023/09/02 06:49:43;;;;;;;13.38;11.98;;;;;;;;;;6300301;28;20204;-69
2023/09/02 06:52:45;;;;;;;14.88;9.68;;;;;;;;;;6308036;28;20169;-68
2023/09/02 06:55:47;;;;;;;12.57;11.27;;;;;;;;;;6310559;28;20036;-69
2023/09/02 06:58:49;;;;;;;11.73;8.48;;;;;;;;;;6313966;28;20036;-69
2023/09/02 07:01:52;;;;;;;12.45;8.95;;;;;;;;;;6309004;28;20127;-69
2023/09/02 07:04:54;;;;;;;13.30;9.20;;;;;;;;;;6313870;28;20048;-70
2023/09/02 07:07:56;;;;;;;12.93;11.48;;;;;;;;;;6315178;28;20651;-70
2023/09/02 07:10:58;;;;;;;11.98;8.82;;;;;;;;;;6313336;28;20142;-69
2023/09/02 07:14:00;;;;;;;15.40;13.02;;;;;;;;;;6312676;28;20165;-69
2023/09/02 07:17:02;;;;;;;13.32;9.45;;;;;;;;;;6311895;28;20077;-69
2023/09/02 07:20:05;;;;;;;11.35;9.52;;;;;;;;;;6309199;28;20048;-69
2023/09/02 07:23:07;;;;;;;10.25;8.32;;;;;;;;;;6312706;28;20193;-68
2023/09/02 07:26:09;;;;;;;11.75;10.48;;;;;;;;;;6315929;28;20055;-69
2023/09/02 07:29:11;;;;;;;10.27;7.75;;;;;;;;;;6316004;28;20047;-69
2023/09/02 07:32:17;;;;;;;9.85;7.60;;;;;;;;;;6306301;28;20446;-69
2023/09/02 07:35:19;;;;;;;10.52;8.00;;;;;;;;;;6319404;28;20074;-68
2023/09/02 07:38:21;;;;;;;11.48;8.98;;;;;;;;;;6313838;28;20096;-69
2023/09/02 07:41:23;;;;;;;10.63;7.60;;;;;;;;;;6321817;28;20063;-68
2023/09/02 07:44:26;;;;;;;12.05;10.77;;;;;;;;;;6320151;28;20055;-69
2023/09/02 07:47:28;;;;;;;9.25;7.38;;;;;;;;;;6306660;28;20143;-69
2023/09/02 07:50:32;;;;;;;;;;;;;;;;;;6314318;28;20083;-68
2023/09/02 07:53:34;;;;;;;9.18;7.80;;;;;;;;;;6316847;28;19930;-68
2023/09/02 07:56:37;;;;;;;10.90;9.65;;;;;;;;;;6313585;28;20079;-68
2023/09/02 07:59:39;;;;;;;10.23;7.53;;;;;;;;;;6316108;28;20063;-69
2023/09/02 08:02:41;;;;;;;10.88;9.85;;;;;;;;;;6316772;28;20047;-68
2023/09/02 08:05:43;;;;;;;11.82;9.25;;;;;;;;;;6315183;28;20056;-68
2023/09/02 08:08:45;;;;;;;8.57;5.82;;;;;;;;;;6313510;28;20040;-68
2023/09/02 08:12:11;;;;;;;9.80;8.43;;;;;;;;;;6310612;28;20547;-69
2023/09/02 08:15:13;;;;;;;10.20;7.18;;;;;;;;;;6317491;28;20043;-68
2023/09/02 08:18:15;;;;;;;8.32;7.15;;;;;;;;;;6314093;27;20069;-68
2023/09/02 08:21:18;;;;;;;9.45;8.57;;;;;;;;;;6318993;28;20523;-68
2023/09/02 08:24:20;;;;;;;9.15;6.88;;;;;;;;;;6311128;28;20039;-68
2023/09/02 08:27:24;;;;;;;8.25;6.43;;;;;;;;;;6312443;28;20549;-68
2023/09/02 08:30:26;;;;;;;5.00;3.30;;;;;;;;;;6315361;28;20707;-68
2023/09/02 08:33:28;;;;;;;7.18;5.43;;;;;;;;;;6312674;28;20051;-68
2023/09/02 08:36:30;;;;;;;6.57;5.97;;;;;;;;;;6312572;28;20844;-68
2023/09/02 08:39:36;;;;;;;6.22;5.63;;;;;;;;;;6311809;28;20056;-68
2023/09/02 08:42:39;;;;;;;7.43;6.57;;;;;;;;;;6311865;28;20599;-68
2023/09/02 08:45:53;;;;;;;7.18;5.55;;;;;;;;;;6318752;27;20036;-68
2023/09/02 08:49:00;;;;;;;6.03;5.40;;;;;;;;;;6319659;28;20121;-68
2023/09/02 08:52:09;;;;;;;6.05;5.22;;;;;;;;;;6315163;28;20054;-68
2023/09/02 08:55:12;;;;;;;6.20;4.93;;;;;;;;;;6327976;28;20061;-68
2023/09/02 08:58:15;;;;;;;8.68;5.95;;;;;;;;;;6312072;28;20099;-68
2023/09/02 09:01:19;;;;;;;6.55;5.82;;;;;;;;;;6312355;28;20044;-68
2023/09/02 09:04:22;;;;;;;5.07;4.57;;;;;;;;;;6325065;28;20039;-68
2023/09/02 09:07:24;;;;;;;5.32;4.82;;;;;;;;;;6309814;28;20039;-69
2023/09/02 09:10:26;;;;;;;5.90;5.10;;;;;;;;;;6315013;28;20044;-68
2023/09/02 09:13:29;;;;;;;4.95;4.35;;;;;;;;;;6299563;28;20217;-68
2023/09/02 09:16:39;;;;;;;4.68;4.05;;;;;;;;;;6315367;28;20185;-68
2023/09/02 09:19:41;;;;;;;4.90;4.35;;;;;;;;;;6316559;28;20032;-68
2023/09/02 09:22:43;;;;;;;7.05;5.10;;;;;;;;;;6303809;28;20048;-68
2023/09/02 09:25:49;;;;;;;5.97;4.70;;;;;;;;;;6319756;28;20052;-68
2023/09/02 09:28:56;;;;;;;5.25;4.75;;;;;;;;;;6323782;28;20101;-69
2023/09/02 09:32:14;;;;;;;5.43;4.85;;;;;;;;;;6309274;28;20040;-69
2023/09/02 09:35:22;;;;;;;7.45;5.50;;;;;;;;;;6312046;28;20054;-69
2023/09/02 09:38:37;;;;;;;5.50;4.93;;;;;;;;;;6315364;28;20039;-69
2023/09/02 09:41:49;;;;;;;5.05;4.55;;;;;;;;;;6311259;28;20059;-69
2023/09/02 09:44:55;;;;;;;6.20;4.30;;;;;;;;;;6311443;28;20206;-69
2023/09/02 09:48:09;;;;;;;5.07;4.57;;;;;;;;;;6320360;28;20055;-69
2023/09/02 09:51:22;;;;;;;6.38;5.00;;;;;;;;;;6316109;28;20059;-69
2023/09/02 09:54:56;;;;;;;7.05;6.38;;;;;;;;;;6319987;28;20775;-69
2023/09/02 09:57:58;;;;;;;4.55;3.85;;;;;;;;;;6316896;28;20057;-69
2023/09/02 10:01:01;;;;;;;4.43;2.80;;;;;;;;;;6306131;28;20494;-69
2023/09/02 10:04:08;;;;;;;5.57;5.07;;;;;;;;;;6311769;28;20040;-69
2023/09/02 10:07:10;;;;;;;5.38;4.53;;;;;;;;;;6310280;28;20054;-69
2023/09/02 10:10:14;;;;;;;;;;;;;;;;;;6306598;28;20055;-68
2023/09/02 10:13:17;;;;;;;;;;;;;;;;;;6311307;28;19924;-69
2023/09/02 10:16:22;;;;;;;5.97;4.28;;;;;;;;;;6308326;28;20429;-69
2023/09/02 10:19:24;;;;;;;6.20;4.65;;;;;;;;;;6310155;28;20048;-69
2023/09/02 10:22:31;;;;;;;5.38;4.88;;;;;;;;;;6306043;28;20052;-69
2023/09/02 10:26:08;;;;;;;5.47;4.72;;;;;;;;;;6310252;28;20320;-69
2023/09/02 10:29:13;;;;;;;4.60;3.75;;;;;;;;;;6301302;28;20040;-69
2023/09/02 10:32:16;;;;;;;5.75;4.47;;;;;;;;;;6318002;28;20040;-69
2023/09/02 10:35:24;;;;;;;4.82;2.75;;;;;;;;;;6293957;28;20675;-69
2023/09/02 10:38:33;;;;;;;5.78;4.30;;;;;;;;;;6311622;28;20055;-69
2023/09/02 10:41:35;;;;;;;8.73;4.18;;;;;;;;;;6315793;28;20055;-69
2023/09/02 10:44:38;;;;;;;5.13;4.35;;;;;;;;;;6310905;28;20052;-69
2023/09/02 10:47:41;;;;;;;5.05;4.45;;;;;;;;;;6314117;28;20044;-68
2023/09/02 10:50:43;;;;;;;5.88;4.07;;;;;;;;;;6312683;28;20051;-69
2023/09/02 10:53:50;;;;;;;5.03;4.13;;;;;;;;;;6314818;28;20040;-68
2023/09/02 10:56:52;;;;;;;5.47;4.07;;;;;;;;;;6328685;28;20044;-69
2023/09/02 11:00:13;;;;;;;4.95;4.20;;;;;;;;;;6313518;28;20052;-69
2023/09/02 11:03:54;;;;;;;4.80;4.20;;;;;;;;;;6317971;28;20141;-69
2023/09/02 11:07:18;;;;;;;5.60;3.92;;;;;;;;;;6315650;28;20165;-69
2023/09/02 11:10:50;;;;;;;6.57;4.90;;;;;;;;;;6314644;28;20044;-69
2023/09/02 11:14:07;;;;;;;5.03;4.53;;;;;;;;;;6303683;28;20055;-69
2023/09/02 11:17:29;;;;;;;4.60;3.88;;;;;;;;;;6310713;28;20040;-69
2023/09/02 11:20:48;;;;;;;5.68;4.55;;;;;;;;;;6315184;28;20040;-69
2023/09/02 11:23:50;;;;;;;4.53;2.78;;;;;;;;;;6311076;28;20625;-70
2023/09/02 11:26:54;;;;;;;6.60;5.00;;;;;;;;;;6312596;28;20055;-68
2023/09/02 11:30:09;;;;;;;5.40;4.22;;;;;;;;;;6320493;28;20036;-68
2023/09/02 11:33:19;;;;;;;4.93;4.10;;;;;;;;;;6315853;28;20056;-68
2023/09/02 11:36:22;;;;;;;5.50;4.22;;;;;;;;;;6314003;28;20052;-68
2023/09/02 11:39:25;;;;;;;4.35;3.53;;;;;;;;;;6315110;28;20193;-69
2023/09/02 11:42:27;;;;;;;7.45;5.95;;;;;;;;;;6312991;28;20040;-69
2023/09/02 11:45:31;;;;;;;5.88;5.07;;;;;;;;;;6313736;28;20047;-69
2023/09/02 11:48:33;;;;;;;5.55;3.88;;;;;;;;;;6313989;28;20040;-68
2023/09/02 11:51:37;;;;;;;7.95;4.00;;;;;;;;;;6310861;28;20218;-68
2023/09/02 11:54:39;;;;;;;9.73;4.10;;;;;;;;;;6307542;28;20051;-69
2023/09/02 11:57:50;;;;;;;8.52;6.15;;;;;;;;;;6318353;28;20056;-69
2023/09/02 12:00:53;;;;;;;5.30;4.63;;;;;;;;;;6313667;28;20032;-69
2023/09/02 12:03:55;;;;;;;10.55;4.20;;;;;;;;;;6314775;28;20560;-67
2023/09/02 12:06:57;;;;;;;4.43;2.92;;;;;;;;;;6311813;28;20673;-67
2023/09/02 12:10:16;;;;;;;5.10;4.60;;;;;;;;;;6309470;28;20056;-68
2023/09/02 12:13:18;;;;;;;5.72;4.55;;;;;;;;;;6302244;28;20040;-67
2023/09/02 12:16:22;;;;;;;5.13;4.18;;;;;;;;;;6315475;28;20043;-67
2023/09/02 12:19:25;;;;;;;5.80;4.05;;;;;;;;;;6313799;28;20545;-68
2023/09/02 12:22:27;;;;;;;4.85;3.35;;;;;;;;;;6315966;28;20051;-68
2023/09/02 12:25:29;;;;;;;4.35;3.72;;;;;;;;;;6310691;28;20164;-68
2023/09/02 12:28:31;;;;;;;6.53;4.00;;;;;;;;;;6318550;28;20063;-67
2023/09/02 12:31:33;;;;;;;5.70;4.63;;;;;;;;;;6312782;28;20048;-67
2023/09/02 12:34:38;;;;;;;5.78;3.28;;;;;;;;;;6308927;28;20695;-68
2023/09/02 12:37:41;;;;;;;5.35;3.80;;;;;;;;;;6315894;28;20134;-68
2023/09/02 12:40:56;;;;;;;28.92;26.30;;;;;;;;;;6313979;28;20441;-68
2023/09/02 12:44:12;;;;;;;5.18;4.68;;;;;;;;;;6307458;28;20148;-68
2023/09/02 12:47:21;;;;;;;5.32;4.65;;;;;;;;;;6312289;28;20048;-68
2023/09/02 12:50:23;;;;;;;5.15;3.85;;;;;;;;;;6307446;28;20055;-68
2023/09/02 12:53:26;;;;;;;6.75;4.25;;;;;;;;;;6309836;28;20543;-69
2023/09/02 12:56:31;;;;;;;8.45;7.60;;;;;;;;;;6317095;28;20057;-68
2023/09/02 12:59:33;;;;;;;7.78;7.10;;;;;;;;;;6315272;28;20048;-68
2023/09/02 13:02:35;;;;;;;6.32;5.45;;;;;;;;;;6315389;28;20052;-68
2023/09/02 13:05:37;;;;;;;5.97;5.38;;;;;;;;;;6315906;28;20093;-68
2023/09/02 13:08:43;;;;;;;5.63;4.90;;;;;;;;;;6311612;28;20047;-68
2023/09/02 13:11:47;;;;;;;5.93;5.20;;;;;;;;;;6308025;28;20090;-67
2023/09/02 13:14:49;;;;;;;5.47;4.63;;;;;;;;;;6316066;28;20062;-68
2023/09/02 13:17:53;;;;;;;5.65;3.75;;;;;;;;;;6309607;28;20133;-68
2023/09/02 13:20:55;;;;;;;4.72;4.10;;;;;;;;;;6311361;28;20043;-68
2023/09/02 13:23:58;;;;;;;4.93;3.28;;;;;;;;;;6314052;28;20431;-68
2023/09/02 13:27:01;;;;;;;5.65;4.05;;;;;;;;;;6315387;28;20043;-69
2023/09/02 13:30:04;;;;;;;5.85;4.90;;;;;;;;;;6313470;28;20040;-68
2023/09/02 13:33:07;;;;;;;7.65;4.30;;;;;;;;;;6316248;28;20794;-68
2023/09/02 13:36:10;;;;;;;5.65;4.22;;;;;;;;;;6314680;28;20040;-69
2023/09/02 13:39:13;;;;;;;5.97;4.60;;;;;;;;;;6314584;28;20079;-68
2023/09/02 13:42:18;;;;;;;5.82;4.53;;;;;;;;;;6315720;28;20044;-69
2023/09/02 13:45:27;;;;;;;5.78;4.43;;;;;;;;;;6319997;28;20043;-70
2023/09/02 13:48:29;;;;;;;4.88;3.92;;;;;;;;;;6314181;28;20058;-68
2023/09/02 13:51:34;;;;;;;4.75;3.70;;;;;;;;;;6308080;28;20055;-70
2023/09/02 13:54:37;;;;;;;5.30;4.22;;;;;;;;;;6316259;28;20047;-69
2023/09/02 13:57:39;;;;;;;5.45;4.30;;;;;;;;;;6315755;28;20054;-68
2023/09/02 14:00:41;;;;;;;5.68;4.68;;;;;;;;;;6322187;28;20039;-68
2023/09/02 14:03:44;;;;;;;5.65;4.30;;;;;;;;;;6317187;28;20051;-70
2023/09/02 14:06:47;;;;;;;6.13;5.53;;;;;;;;;;6312800;28;20051;-69
2023/09/02 14:09:51;;;;;;;5.07;4.53;;;;;;;;;;6314599;28;20137;-67
2023/09/02 14:12:53;;;;;;;5.90;5.00;;;;;;;;;;6312303;28;20048;-67
2023/09/02 14:15:55;;;;;;;5.57;3.97;;;;;;;;;;6306884;28;20426;-68
2023/09/02 14:18:57;;;;;;;5.82;5.20;;;;;;;;;;6304605;28;20048;-69
2023/09/02 14:21:59;;;;;;;5.53;4.60;;;;;;;;;;6306701;28;20048;-68
2023/09/02 14:25:01;;;;;;;5.38;4.85;;;;;;;;;;6315776;28;20047;-67
2023/09/02 14:28:03;;;;;;;6.00;4.70;;;;;;;;;;6312826;28;20105;-69
2023/09/02 14:31:08;;;;;;;5.00;4.40;;;;;;;;;;6319638;28;20051;-68
2023/09/02 14:34:10;;;;;;;6.70;5.05;;;;;;;;;;6316836;28;20044;-67
2023/09/02 14:37:12;;;;;;;6.50;5.82;;;;;;;;;;6308696;28;20665;-69
2023/09/02 14:40:15;;;;;;;7.57;5.22;;;;;;;;;;6321598;28;20044;-68
2023/09/02 14:43:17;;;;;;;7.50;6.50;;;;;;;;;;6317187;28;20121;-69
2023/09/02 14:46:19;;;;;;;8.45;6.97;;;;;;;;;;6313981;28;20170;-68
2023/09/02 14:49:21;;;;;;;6.35;5.28;;;;;;;;;;6328336;28;20142;-69
2023/09/02 14:52:24;;;;;;;6.55;5.22;;;;;;;;;;6315289;28;20043;-68
2023/09/02 14:55:27;;;;;;;7.88;5.30;;;;;;;;;;6314599;28;20082;-68
2023/09/02 14:58:31;;;;;;;6.35;4.10;;;;;;;;;;6309532;28;20078;-68
2023/09/02 15:01:34;;;;;;;7.43;6.68;;;;;;;;;;6321826;28;20039;-69
2023/09/02 15:04:39;;;;;;;7.50;5.95;;;;;;;;;;6300778;28;20102;-69
2023/09/02 15:07:42;;;;;;;5.53;4.15;;;;;;;;;;6323457;28;20046;-70
2023/09/02 15:10:45;;;;;;;6.32;4.68;;;;;;;;;;6316264;28;20407;-70
2023/09/02 15:13:47;;;;;;;6.70;5.60;;;;;;;;;;6313263;28;20079;-69
2023/09/02 15:16:54;;;;;;;10.30;5.43;;;;;;;;;;6322905;28;20048;-69
2023/09/02 15:19:58;;;;;;;8.90;4.32;;;;;;;;;;6313542;28;20561;-69
2023/09/02 15:23:03;;;;;;;8.00;6.18;;;;;;;;;;6318329;28;20059;-70
2023/09/02 15:26:09;;;;;;;6.15;5.30;;;;;;;;;;6317347;28;20056;-67
2023/09/02 15:29:13;;;;;;;4.53;3.38;;;;;;;;;;6317113;28;20571;-67
2023/09/02 15:32:15;;;;;;;5.28;4.55;;;;;;;;;;6321264;28;20103;-68
2023/09/02 15:35:17;;;;;;;7.03;5.50;;;;;;;;;;6320297;28;20410;-67
2023/09/02 15:38:19;;;;;;;5.82;5.18;;;;;;;;;;6319661;28;20560;-69
2023/09/02 15:41:21;;;;;;;6.50;5.22;;;;;;;;;;6322475;28;20414;-67
2023/09/02 15:44:24;;;;;;;6.50;5.63;;;;;;;;;;6317934;28;20044;-68
2023/09/02 15:47:26;;;;;;;6.20;5.53;;;;;;;;;;6320865;28;20101;-68
2023/09/02 15:50:28;;;;;;;7.35;5.80;;;;;;;;;;6316713;28;20090;-68
2023/09/02 15:53:32;;;;;;;6.82;6.15;;;;;;;;;;6317496;28;20048;-69
2023/09/02 15:56:34;;;;;;;8.57;4.97;;;;;;;;;;6309939;28;20048;-68
2023/09/02 15:59:36;;;;;;;6.25;5.60;;;;;;;;;;6321175;28;20085;-69
2023/09/02 16:02:39;;;;;;;9.25;5.40;;;;;;;;;;6325023;28;20052;-70
2023/09/02 16:05:42;;;;;;;6.20;5.55;;;;;;;;;;6312505;28;20043;-69
2023/09/02 16:08:44;;;;;;;6.47;5.85;;;;;;;;;;6315172;28;20079;-69
2023/09/02 16:11:48;;;;;;;5.60;5.00;;;;;;;;;;6312639;28;20052;-70
2023/09/02 16:14:50;;;;;;;;;;;;;;;;;;6313172;28;20130;-70
2023/09/02 16:17:53;;;;;;;6.80;6.10;;;;;;;;;;6307465;28;20102;-69
2023/09/02 16:20:55;;;;;;;8.18;5.90;;;;;;;;;;6313387;28;20040;-69
2023/09/02 16:23:57;;;;;;;6.60;5.90;;;;;;;;;;6309591;28;20048;-69
2023/09/02 16:27:01;;;;;;;8.32;7.53;;;;;;;;;;6306206;28;20039;-69
2023/09/02 16:30:05;;;;;;;7.32;6.68;;;;;;;;;;6311297;28;20040;-69
2023/09/02 16:33:07;;;;;;;6.97;6.25;;;;;;;;;;6311773;28;20047;-69
2023/09/02 16:36:11;;;;;;;7.18;5.88;;;;;;;;;;6311294;28;20048;-69
2023/09/02 16:39:15;;;;;;;8.18;7.38;;;;;;;;;;6327576;28;20048;-69
2023/09/02 16:42:17;;;;;;;8.32;6.60;;;;;;;;;;6312412;28;20080;-68
2023/09/02 16:45:27;;;;;;;7.22;6.53;;;;;;;;;;6313255;28;20042;-69
2023/09/02 16:48:29;;;;;;;8.18;7.18;;;;;;;;;;6320233;28;20064;-69
2023/09/02 16:51:35;;;;;;;7.10;6.40;;;;;;;;;;6314692;28;20047;-69
2023/09/02 16:54:37;;;;;;;7.63;6.65;;;;;;;;;;6311539;28;20048;-69
2023/09/02 16:57:53;;;;;;;6.95;6.35;;;;;;;;;;6315422;28;20048;-69
2023/09/02 17:01:05;;;;;;;7.07;5.07;;;;;;;;;;6310005;28;20040;-69
2023/09/02 17:04:07;;;;;;;8.45;7.68;;;;;;;;;;6306304;28;20059;-68
2023/09/02 17:07:10;;;;;;;8.40;6.85;;;;;;;;;;6323512;28;20089;-68
2023/09/02 17:10:17;;;;;;;6.68;4.28;;;;;;;;;;6306281;28;20621;-69
2023/09/02 17:13:20;;;;;;;8.77;7.03;;;;;;;;;;6341439;27;20108;-69
2023/09/02 17:16:22;;;;;;;7.93;7.13;;;;;;;;;;6310060;28;20086;-69
2023/09/02 17:19:27;;;;;;;9.65;8.75;;;;;;;;;;6309681;28;20048;-68
2023/09/02 17:22:29;;;;;;;8.50;7.70;;;;;;;;;;6300591;28;20049;-68
2023/09/02 17:25:32;;;;;;;8.45;5.40;;;;;;;;;;6306984;28;20066;-67
2023/09/02 17:28:34;;;;;;;8.65;7.75;;;;;;;;;;6310577;28;20189;-68
2023/09/02 17:31:36;;;;;;;10.05;6.95;;;;;;;;;;6311836;28;20063;-69
2023/09/02 17:34:39;;;;;;;7.18;4.20;;;;;;;;;;6310485;28;20054;-70
2023/09/02 17:37:41;;;;;;;9.13;8.32;;;;;;;;;;6312278;28;20079;-70
2023/09/02 17:40:43;;;;;;;8.82;6.47;;;;;;;;;;6314304;28;20047;-68
2023/09/02 17:43:46;;;;;;;10.07;4.93;;;;;;;;;;6315419;28;20048;-68
2023/09/02 17:46:50;;;;;;;8.85;7.60;;;;;;;;;;6310288;28;20063;-69
2023/09/02 17:49:52;;;;;;;9.50;7.25;;;;;;;;;;6311810;28;20070;-69
2023/09/02 17:52:54;;;;;;;6.72;5.47;;;;;;;;;;6309055;28;20052;-69
2023/09/02 17:55:56;;;;;;;13.27;11.48;;;;;;;;;;6312452;28;20127;-69
2023/09/02 17:58:58;;;;;;;10.95;5.88;;;;;;;;;;6309674;28;20085;-72
2023/09/02 18:02:03;;;;;;;7.70;6.07;;;;;;;;;;6308755;28;20047;-70
2023/09/02 18:05:07;;;;;;;8.82;8.02;;;;;;;;;;6311015;28;20036;-70
2023/09/02 18:08:09;;;;;;;8.25;7.35;;;;;;;;;;6305614;28;20108;-68
2023/09/02 18:11:12;;;;;;;8.93;7.32;;;;;;;;;;6299998;28;20052;-69